Time;durP1;ratioP1;P1;durP2;ratioP2;P2;SDS_P1;SDS_P2;PMS_P1;PMS_P2;Temp;Humidity;BMP_temperature;BMP_pressure;BME280_temperature;BME280_humidity;BME280_pressure;Samples;Min_cycle;Max_cycle;Signal;HPM_P1;HPM_P2
2022/04/23 00:00:33;;;;;;;1.87;1.40;;;23.20;51.20;;;;;;5009436;28;20416;-85
2022/04/23 00:02:59;;;;;;;1.40;1.20;;;23.20;51.30;;;;;;5003749;28;20459;-85
2022/04/23 00:05:30;;;;;;;1.53;1.10;;;23.20;51.20;;;;;;4995856;28;20420;-85
2022/04/23 00:07:56;;;;;;;1.57;1.37;;;23.20;51.20;;;;;;5008371;28;20472;-85
2022/04/23 00:10:23;;;;;;;2.00;1.53;;;23.20;51.20;;;;;;5006174;28;20431;-85
2022/04/23 00:12:50;;;;;;;1.50;1.10;;;23.20;51.20;;;;;;4992601;28;20428;-85
2022/04/23 00:15:16;;;;;;;1.80;1.33;;;23.20;51.20;;;;;;5006114;28;20427;-85
2022/04/23 00:17:47;;;;;;;1.30;1.00;;;23.20;51.20;;;;;;5010872;28;20483;-85
2022/04/23 00:20:13;;;;;;;1.20;1.10;;;23.20;51.20;;;;;;5008730;28;20440;-85
2022/04/23 00:22:40;;;;;;;1.37;1.20;;;23.20;51.20;;;;;;5007436;28;20434;-85
2022/04/23 00:25:09;;;;;;;1.73;1.10;;;23.20;51.20;;;;;;5007978;28;20176;-88
2022/04/23 00:27:35;;;;;;;1.60;1.33;;;23.20;51.20;;;;;;5007315;28;20465;-85
2022/04/23 00:30:01;;;;;;;1.27;1.17;;;23.20;51.20;;;;;;5012089;28;20475;-85
2022/04/23 00:32:28;;;;;;;1.60;1.20;;;23.20;51.20;;;;;;5002696;28;20256;-86
2022/04/23 00:34:54;;;;;;;1.80;1.40;;;23.20;51.20;;;;;;5002501;28;20420;-85
2022/04/23 00:37:20;;;;;;;1.63;1.30;;;23.20;51.30;;;;;;4999853;28;20530;-85
2022/04/23 00:39:48;;;;;;;1.30;1.00;;;23.20;51.20;;;;;;5012290;28;20181;-86
2022/04/23 00:42:18;;;;;;;1.70;1.13;;;23.20;51.20;;;;;;5011344;28;20201;-84
2022/04/23 00:44:43;;;;;;;1.33;1.20;;;23.20;51.30;;;;;;4996719;28;20451;-86
2022/04/23 00:47:09;;;;;;;1.30;1.20;;;23.20;51.30;;;;;;5030698;28;20447;-85
2022/04/23 00:49:37;;;;;;;2.27;1.30;;;23.20;51.20;;;;;;5031272;28;20192;-85
2022/04/23 00:52:04;;;;;;;1.57;1.30;;;23.20;51.30;;;;;;5030456;28;20181;-86
2022/04/23 00:54:30;;;;;;;1.60;1.37;;;23.20;51.30;;;;;;5014165;28;20427;-86
2022/04/23 00:56:57;;;;;;;1.83;1.30;;;23.20;51.30;;;;;;5013860;28;20427;-84
2022/04/23 00:59:27;;;;;;;2.13;1.07;;;23.20;51.30;;;;;;5031775;28;20897;-86
2022/04/23 01:01:53;;;;;;;1.70;1.60;;;23.20;51.30;;;;;;5012269;28;20428;-86
2022/04/23 01:04:19;;;;;;;2.07;1.87;;;23.20;51.30;;;;;;5027826;28;20411;-86
2022/04/23 01:10:08;;;;;;;1.30;1.20;;;23.20;51.30;;;;;;5028587;28;20399;-86
2022/04/23 01:12:35;;;;;;;1.50;1.20;;;23.10;51.30;;;;;;5028182;28;20434;-86
2022/04/23 01:15:06;;;;;;;1.70;1.20;;;23.10;51.30;;;;;;5031366;28;20434;-85
2022/04/23 01:17:32;;;;;;;2.30;1.33;;;23.10;51.30;;;;;;5013419;28;21016;-86
2022/04/23 01:20:06;;;;;;;1.77;1.30;;;23.10;51.30;;;;;;5013971;28;20438;-86
2022/04/23 01:22:33;;;;;;;1.40;1.13;;;23.10;51.30;;;;;;5031509;28;20453;-86
2022/04/23 01:25:00;;;;;;;1.47;1.37;;;23.10;51.30;;;;;;5031284;28;20407;-85
2022/04/23 01:27:30;;;;;;;1.40;1.30;;;23.20;51.40;;;;;;5013484;28;20526;-86
2022/04/23 01:29:56;;;;;;;1.77;1.27;;;23.20;51.30;;;;;;5031202;28;20438;-85
2022/04/23 01:32:22;;;;;;;1.43;1.33;;;23.20;51.40;;;;;;5013564;28;20434;-85
2022/04/23 01:34:49;;;;;;;1.30;1.13;;;23.10;51.30;;;;;;5031210;28;20905;-86
2022/04/23 01:37:17;;;;;;;1.50;1.30;;;23.20;51.40;;;;;;5013447;28;20176;-85
2022/04/23 01:39:44;;;;;;;1.40;1.10;;;23.20;51.30;;;;;;5013251;28;20418;-86
2022/04/23 01:42:10;;;;;;;1.30;1.07;;;23.20;51.30;;;;;;5031554;28;20434;-86
2022/04/23 01:44:36;;;;;;;1.30;1.20;;;23.20;51.30;;;;;;5013422;28;20423;-86
2022/04/23 01:47:02;;;;;;;1.80;1.20;;;23.20;51.30;;;;;;5012911;28;20467;-86
2022/04/23 01:49:27;;;;;;;2.10;1.30;;;23.20;51.30;;;;;;5013248;28;20450;-86
2022/04/23 01:51:53;;;;;;;1.30;1.20;;;23.20;51.30;;;;;;5030493;28;20461;-86
2022/04/23 01:54:19;;;;;;;1.60;1.30;;;23.20;51.30;;;;;;5013068;28;20659;-86
2022/04/23 01:56:44;;;;;;;1.30;1.20;;;23.20;51.30;;;;;;5030712;28;20180;-86
2022/04/23 01:59:10;;;;;;;2.80;1.37;;;23.20;51.30;;;;;;5030845;28;20173;-86
2022/04/23 02:01:37;;;;;;;1.33;1.07;;;23.20;51.30;;;;;;5030796;28;20184;-86
2022/04/23 02:04:06;;;;;;;1.40;1.20;;;23.20;51.30;;;;;;5030823;28;20196;-86
2022/04/23 02:06:33;;;;;;;1.77;1.50;;;23.20;51.20;;;;;;5031908;28;20523;-86
2022/04/23 02:09:00;;;;;;;1.30;1.20;;;23.20;51.20;;;;;;5014061;28;20407;-86
2022/04/23 02:11:25;;;;;;;1.53;1.33;;;23.20;51.20;;;;;;5012368;28;20504;-85
2022/04/23 02:13:51;;;;;;;1.63;1.10;;;23.20;51.20;;;;;;5027363;28;20427;-85
2022/04/23 02:16:18;;;;;;;1.27;1.17;;;23.20;51.30;;;;;;5015354;28;20187;-86
2022/04/23 02:18:45;;;;;;;1.40;1.10;;;23.20;51.20;;;;;;5032182;28;20164;-86
2022/04/23 02:21:11;;;;;;;1.73;1.47;;;23.20;51.20;;;;;;5033020;28;20491;-86
2022/04/23 02:23:37;;;;;;;1.23;1.07;;;23.20;51.20;;;;;;5015361;28;20419;-86
2022/04/23 02:26:04;;;;;;;1.50;1.23;;;23.20;51.20;;;;;;5025312;28;20412;-86
2022/04/23 02:28:32;;;;;;;1.50;1.10;;;23.20;51.20;;;;;;5032895;28;20203;-86
2022/04/23 02:30:58;;;;;;;1.57;1.17;;;23.20;51.20;;;;;;5015448;28;20431;-86
2022/04/23 02:33:25;;;;;;;1.57;1.30;;;23.20;51.20;;;;;;5032047;28;20492;-86
2022/04/23 02:35:51;;;;;;;1.77;1.40;;;23.20;51.20;;;;;;5032250;28;20419;-86
2022/04/23 02:38:17;;;;;;;2.33;1.23;;;23.20;51.80;;;;;;4995634;28;20785;-87
2022/04/23 02:40:43;;;;;;;1.30;1.03;;;23.30;51.30;;;;;;4993821;28;20427;-87
2022/04/23 02:43:12;;;;;;;1.70;1.40;;;23.20;51.20;;;;;;5012014;28;20177;-86
2022/04/23 02:45:41;;;;;;;1.30;0.97;;;23.20;51.20;;;;;;5012889;28;20404;-86
2022/04/23 02:48:11;;;;;;;1.23;1.00;;;23.20;51.20;;;;;;5012622;28;20460;-86
2022/04/23 02:50:38;;;;;;;1.40;1.13;;;23.20;51.20;;;;;;5012019;28;20409;-86
2022/04/23 02:53:08;;;;;;;1.50;1.13;;;23.20;51.20;;;;;;4995972;28;20421;-86
2022/04/23 02:55:36;;;;;;;2.13;1.00;;;23.20;51.20;;;;;;5024092;28;20411;-86
2022/04/23 02:58:09;;;;;;;1.20;1.03;;;23.30;51.20;;;;;;5015189;28;20442;-86
2022/04/23 03:00:35;;;;;;;1.27;1.00;;;23.20;51.20;;;;;;5032454;28;20395;-86
2022/04/23 03:03:01;;;;;;;2.30;1.60;;;23.20;51.20;;;;;;5014134;28;20450;-86
2022/04/23 03:05:27;;;;;;;1.53;1.10;;;23.20;51.20;;;;;;5012656;28;20415;-86
2022/04/23 03:07:53;;;;;;;1.67;1.23;;;23.20;51.20;;;;;;5029492;28;20203;-86
2022/04/23 03:10:19;;;;;;;1.47;1.07;;;23.20;51.20;;;;;;5012711;28;20801;-85
2022/04/23 03:12:46;;;;;;;1.20;1.03;;;23.20;51.20;;;;;;5011911;28;20172;-85
2022/04/23 03:15:13;;;;;;;1.80;1.30;;;23.20;51.20;;;;;;5012462;28;20514;-85
2022/04/23 03:17:39;;;;;;;1.30;1.10;;;23.20;51.20;;;;;;5012181;28;20443;-86
2022/04/23 03:20:07;;;;;;;1.23;1.03;;;23.20;51.20;;;;;;5029517;28;20487;-85
2022/04/23 03:22:35;;;;;;;1.50;1.20;;;23.20;51.20;;;;;;5032834;28;20172;-86
2022/04/23 03:25:01;;;;;;;1.57;1.20;;;23.20;51.20;;;;;;4996662;28;20420;-86
2022/04/23 03:27:26;;;;;;;1.40;1.00;;;23.20;51.20;;;;;;5013352;28;21013;-87
2022/04/23 03:29:57;;;;;;;1.30;1.10;;;23.20;51.20;;;;;;5015740;28;20554;-86
2022/04/23 03:32:23;;;;;;;1.40;1.20;;;23.20;51.20;;;;;;5015398;28;20172;-86
2022/04/23 03:34:49;;;;;;;1.30;1.00;;;23.20;51.20;;;;;;5033425;28;20423;-86
2022/04/23 03:37:15;;;;;;;1.50;1.07;;;23.20;51.80;;;;;;5015496;28;20423;-86
2022/04/23 03:39:41;;;;;;;1.57;1.13;;;23.20;51.20;;;;;;5015717;28;20446;-85
2022/04/23 03:42:07;;;;;;;1.23;0.97;;;23.20;51.20;;;;;;5016191;28;20180;-85
2022/04/23 03:44:33;;;;;;;1.10;0.90;;;23.20;51.20;;;;;;5033089;28;20184;-85
2022/04/23 03:47:01;;;;;;;1.40;1.13;;;23.20;51.20;;;;;;5032809;28;20455;-85
2022/04/23 03:49:30;;;;;;;1.03;0.90;;;23.20;51.20;;;;;;5015653;28;20172;-85
2022/04/23 03:51:57;;;;;;;1.40;1.20;;;23.20;51.20;;;;;;5033477;28;20411;-85
2022/04/23 03:54:23;;;;;;;1.93;1.10;;;23.20;51.20;;;;;;5015714;28;20470;-85
2022/04/23 03:56:49;;;;;;;1.80;1.47;;;23.20;51.20;;;;;;5016149;28;20423;-85
2022/04/23 03:59:20;;;;;;;1.53;1.10;;;23.20;51.20;;;;;;5032939;28;20491;-85
2022/04/23 04:01:47;;;;;;;1.83;1.07;;;23.20;51.30;;;;;;5033319;28;20157;-85
2022/04/23 04:04:14;;;;;;;1.40;1.10;;;23.20;51.20;;;;;;5033124;28;20422;-85
2022/04/23 04:06:41;;;;;;;2.20;1.27;;;23.20;51.20;;;;;;5032755;28;20447;-85
2022/04/23 04:09:08;;;;;;;1.50;1.40;;;23.20;51.20;;;;;;4999272;28;20420;-85
2022/04/23 04:14:19;;;;;;;1.20;1.10;;;23.10;51.10;;;;;;5032782;28;20402;-85
2022/04/23 04:16:50;;;;;;;1.33;1.00;;;23.10;51.20;;;;;;5015585;28;20427;-85
2022/04/23 04:19:17;;;;;;;1.67;1.30;;;23.10;51.20;;;;;;5015435;28;20494;-85
2022/04/23 04:21:44;;;;;;;1.20;1.07;;;23.10;51.20;;;;;;5032376;28;20406;-85
2022/04/23 04:24:14;;;;;;;1.50;1.20;;;23.10;51.20;;;;;;5015513;28;20415;-85
2022/04/23 04:26:49;;;;;;;1.40;1.10;;;23.10;51.20;;;;;;5015578;28;20458;-86
2022/04/23 04:29:15;;;;;;;1.30;1.20;;;23.10;51.20;;;;;;5015460;28;20482;-86
2022/04/23 04:31:47;;;;;;;1.53;1.20;;;23.10;51.20;;;;;;5015442;28;20415;-86
2022/04/23 04:34:13;;;;;;;1.53;1.23;;;23.10;51.20;;;;;;5016555;28;20414;-86
2022/04/23 04:36:39;;;;;;;1.37;1.07;;;23.10;51.20;;;;;;5014893;28;20431;-86
2022/04/23 04:39:05;;;;;;;1.53;1.10;;;23.10;51.20;;;;;;4999042;28;20509;-86
2022/04/23 04:41:32;;;;;;;1.27;0.90;;;23.10;51.20;;;;;;5015161;28;20424;-86
2022/04/23 04:43:58;;;;;;;1.30;1.20;;;23.10;51.20;;;;;;5014995;28;20427;-86
2022/04/23 04:46:24;;;;;;;1.37;1.23;;;23.10;51.30;;;;;;4998265;28;20482;-86
2022/04/23 04:48:52;;;;;;;1.67;1.10;;;23.10;51.20;;;;;;5034374;28;20391;-86
2022/04/23 04:51:17;;;;;;;1.20;1.00;;;23.10;51.30;;;;;;5003435;28;20203;-86
2022/04/23 04:53:43;;;;;;;1.10;0.97;;;23.10;51.20;;;;;;5018891;28;20427;-86
2022/04/23 04:56:09;;;;;;;0.90;0.70;;;23.10;51.20;;;;;;5018678;28;20185;-86
2022/04/23 04:58:35;;;;;;;1.30;1.20;;;23.10;51.20;;;;;;5018470;28;20192;-85
2022/04/23 05:01:03;;;;;;;1.40;1.00;;;23.10;51.20;;;;;;5017866;28;20427;-86
2022/04/23 05:03:29;;;;;;;1.23;1.13;;;23.10;51.20;;;;;;5018156;28;20176;-86
2022/04/23 05:05:55;;;;;;;2.07;1.30;;;23.10;51.20;;;;;;5016916;28;20415;-85
2022/04/23 05:08:21;;;;;;;1.20;0.80;;;23.10;51.20;;;;;;5018569;28;20488;-85
2022/04/23 05:10:47;;;;;;;1.37;0.90;;;23.20;51.30;;;;;;5034596;28;20180;-85
2022/04/23 05:13:16;;;;;;;1.70;1.20;;;23.20;51.30;;;;;;5034613;28;20177;-86
2022/04/23 05:15:46;;;;;;;1.30;1.00;;;23.20;51.30;;;;;;5018783;28;20839;-86
2022/04/23 05:18:12;;;;;;;1.40;1.20;;;23.20;51.30;;;;;;5017059;28;20439;-86
2022/04/23 05:20:40;;;;;;;1.40;0.90;;;23.20;51.30;;;;;;5035764;28;20422;-86
2022/04/23 05:23:06;;;;;;;1.63;1.30;;;23.20;51.30;;;;;;5035153;28;20194;-84
2022/04/23 05:25:32;;;;;;;1.47;1.37;;;23.20;51.30;;;;;;5035889;28;20888;-84
2022/04/23 05:27:58;;;;;;;1.50;1.20;;;23.20;51.30;;;;;;5035304;28;20192;-84
2022/04/23 05:30:24;;;;;;;1.47;1.30;;;23.20;51.30;;;;;;5018226;28;20176;-84
2022/04/23 05:32:50;;;;;;;1.13;1.03;;;23.20;51.30;;;;;;5035236;28;20419;-84
2022/04/23 05:35:16;;;;;;;1.20;0.90;;;23.20;51.30;;;;;;5035557;28;20228;-84
2022/04/23 05:37:41;;;;;;;1.30;1.20;;;23.20;51.30;;;;;;5035815;28;20180;-84
2022/04/23 05:40:08;;;;;;;1.30;1.20;;;23.20;51.30;;;;;;5017830;28;20420;-84
2022/04/23 05:42:33;;;;;;;1.33;1.20;;;23.20;51.20;;;;;;5018265;28;20188;-84
2022/04/23 05:44:59;;;;;;;1.40;1.30;;;23.20;51.30;;;;;;5035019;28;20793;-84
2022/04/23 05:47:25;;;;;;;1.57;1.20;;;23.20;51.20;;;;;;5035995;28;20188;-84
2022/04/23 05:49:51;;;;;;;1.10;0.90;;;23.20;51.20;;;;;;5035147;28;20407;-83
2022/04/23 05:52:17;;;;;;;1.10;1.00;;;23.20;51.20;;;;;;5017413;28;20499;-85
2022/04/23 05:54:45;;;;;;;1.33;1.20;;;23.20;51.20;;;;;;5016558;28;20173;-85
2022/04/23 05:57:11;;;;;;;1.50;1.40;;;23.20;51.20;;;;;;5017363;28;20207;-85
2022/04/23 05:59:37;;;;;;;1.50;1.20;;;23.20;51.80;;;;;;5016913;28;20415;-85
2022/04/23 06:02:03;;;;;;;1.47;1.00;;;23.20;51.20;;;;;;5017609;28;20417;-85
2022/04/23 06:04:32;;;;;;;1.50;1.40;;;23.20;51.20;;;;;;5034654;28;20489;-85
2022/04/23 06:06:58;;;;;;;1.20;1.10;;;23.20;51.20;;;;;;5017714;28;20459;-85
2022/04/23 06:09:24;;;;;;;1.50;1.20;;;23.20;51.20;;;;;;5016939;28;20415;-85
2022/04/23 06:12:38;;;;;;;1.90;1.17;;;23.20;51.20;;;;;;5017957;28;20179;-85
2022/04/23 06:15:04;;;;;;;1.77;1.60;;;23.20;51.20;;;;;;5034600;28;20160;-85
2022/04/23 06:17:30;;;;;;;1.27;0.90;;;23.20;51.20;;;;;;5017542;28;20435;-85
2022/04/23 06:19:56;;;;;;;1.13;1.03;;;23.20;51.80;;;;;;5034897;28;20442;-84
2022/04/23 06:22:22;;;;;;;1.30;1.07;;;23.20;51.20;;;;;;5034713;28;20185;-85
2022/04/23 06:24:48;;;;;;;1.50;1.20;;;23.20;51.20;;;;;;5034081;28;20499;-84
2022/04/23 06:27:14;;;;;;;1.90;1.30;;;23.20;51.20;;;;;;5017103;28;20459;-85
2022/04/23 06:29:40;;;;;;;1.17;0.97;;;23.20;51.20;;;;;;5034293;28;20527;-84
2022/04/23 06:32:08;;;;;;;1.50;1.07;;;23.20;51.20;;;;;;5000520;28;20188;-84
2022/04/23 06:34:37;;;;;;;2.00;1.30;;;23.20;51.20;;;;;;5017382;28;20442;-84
2022/04/23 06:37:14;;;;;;;1.67;1.40;;;23.20;51.20;;;;;;5018041;28;20419;-84
2022/04/23 06:39:40;;;;;;;2.10;1.80;;;23.20;51.20;;;;;;5002626;28;20422;-84
2022/04/23 06:42:06;;;;;;;1.30;1.20;;;23.20;51.20;;;;;;5017139;28;20423;-84
2022/04/23 06:44:32;;;;;;;1.77;1.10;;;23.20;51.20;;;;;;5034064;28;20232;-84
2022/04/23 06:46:57;;;;;;;1.20;1.10;;;23.20;51.20;;;;;;5017009;28;20474;-84
2022/04/23 06:49:25;;;;;;;1.63;1.30;;;23.20;51.20;;;;;;5034120;28;20168;-84
2022/04/23 06:51:51;;;;;;;1.27;1.00;;;23.20;51.20;;;;;;5016514;28;20161;-84
2022/04/23 06:54:17;;;;;;;1.20;1.00;;;23.20;51.20;;;;;;5033165;28;20412;-85
2022/04/23 06:56:43;;;;;;;1.40;1.30;;;23.20;51.20;;;;;;5017407;28;20199;-84
2022/04/23 06:59:16;;;;;;;1.40;1.20;;;23.20;51.20;;;;;;5033489;28;21147;-91
2022/04/23 07:01:42;;;;;;;1.03;0.90;;;23.30;51.30;;;;;;5032784;28;20407;-86
2022/04/23 07:04:13;;;;;;;1.63;1.40;;;23.30;51.30;;;;;;5016471;28;20414;-87
2022/04/23 07:06:40;;;;;;;1.50;1.03;;;23.20;51.20;;;;;;5015454;28;20455;-84
2022/04/23 07:09:06;;;;;;;2.20;1.50;;;23.20;51.20;;;;;;5016479;28;20415;-84
2022/04/23 07:11:32;;;;;;;1.70;1.10;;;23.30;51.30;;;;;;5014935;28;20422;-84
2022/04/23 07:13:57;;;;;;;1.40;1.30;;;23.20;51.20;;;;;;5033712;28;20400;-83
2022/04/23 07:16:24;;;;;;;1.53;1.43;;;23.20;51.20;;;;;;5000854;28;20439;-84
2022/04/23 07:18:52;;;;;;;1.37;1.23;;;23.30;51.20;;;;;;5033588;28;20161;-82
2022/04/23 07:21:19;;;;;;;1.30;1.10;;;23.20;51.20;;;;;;5016281;28;20416;-85
2022/04/23 07:24:03;;;;;;;1.50;1.20;;;23.20;51.20;;;;;;5000108;28;20427;-84
2022/04/23 07:26:31;;;;;;;1.50;1.30;;;23.20;51.20;;;;;;5014822;28;20495;-84
2022/04/23 07:28:57;;;;;;;1.80;1.60;;;23.20;51.20;;;;;;5014024;28;20400;-84
2022/04/23 07:31:23;;;;;;;1.90;1.07;;;23.20;51.20;;;;;;5025653;28;20445;-85
2022/04/23 07:39:21;;;;;;;1.50;1.40;;;23.20;51.20;;;;;;5033339;28;20411;-83
2022/04/23 07:41:48;;;;;;;1.77;1.37;;;23.20;51.20;;;;;;5015886;28;20403;-84
2022/04/23 07:44:14;;;;;;;1.40;1.20;;;23.20;51.20;;;;;;5032852;28;20411;-84
2022/04/23 07:46:39;;;;;;;1.10;1.00;;;23.20;51.20;;;;;;5030696;28;20449;-83
2022/04/23 07:49:05;;;;;;;1.60;1.50;;;23.20;51.20;;;;;;5032674;28;20203;-84
2022/04/23 07:51:31;;;;;;;2.27;1.63;;;23.20;51.20;;;;;;5032384;28;20176;-84
2022/04/23 07:53:59;;;;;;;1.93;1.60;;;23.20;51.20;;;;;;5030991;28;20173;-84
2022/04/23 07:56:25;;;;;;;3.07;1.70;;;23.20;51.20;;;;;;5020972;28;20444;-84
2022/04/23 07:58:51;;;;;;;1.60;1.50;;;23.30;51.30;;;;;;5010276;28;20424;-84
2022/04/23 08:01:16;;;;;;;2.53;2.00;;;23.30;51.30;;;;;;5011625;28;20302;-83
2022/04/23 08:03:42;;;;;;;1.40;1.30;;;23.30;51.30;;;;;;5013127;28;20236;-83
2022/04/23 08:06:10;;;;;;;2.03;1.60;;;23.30;51.30;;;;;;5016853;28;20176;-82
2022/04/23 08:08:38;;;;;;;1.73;1.60;;;23.30;51.40;;;;;;5033158;28;20540;-83
2022/04/23 08:11:09;;;;;;;2.53;2.00;;;23.30;51.30;;;;;;5033141;28;20403;-83
2022/04/23 08:13:34;;;;;;;1.67;1.40;;;23.30;51.30;;;;;;5016071;28;20419;-83
2022/04/23 08:16:02;;;;;;;1.97;1.40;;;23.30;51.30;;;;;;5015739;28;20728;-84
2022/04/23 08:18:30;;;;;;;3.20;1.60;;;23.30;51.30;;;;;;5015401;28;20200;-83
2022/04/23 08:20:59;;;;;;;1.97;1.40;;;23.30;51.30;;;;;;5032602;28;20434;-83
2022/04/23 08:23:27;;;;;;;2.60;1.77;;;23.30;51.30;;;;;;5019728;28;20407;-83
2022/04/23 08:25:56;;;;;;;2.30;1.40;;;23.30;51.30;;;;;;5036983;28;20501;-83
2022/04/23 08:31:08;;;;;;;1.90;1.70;;;23.30;51.30;;;;;;5036493;28;20410;-84
2022/04/23 08:36:22;;;;;;;1.90;1.60;;;23.30;51.30;;;;;;5036482;28;20394;-86
2022/04/23 08:38:51;;;;;;;1.90;1.70;;;23.30;51.30;;;;;;5012188;28;20922;-87
2022/04/23 08:41:17;;;;;;;1.73;1.50;;;23.30;51.30;;;;;;4999010;28;20515;-84
2022/04/23 08:43:43;;;;;;;1.50;1.20;;;23.30;51.30;;;;;;4999750;28;20431;-84
2022/04/23 08:46:12;;;;;;;1.70;1.43;;;23.30;51.30;;;;;;5016520;28;20408;-85
2022/04/23 08:48:39;;;;;;;2.13;1.50;;;23.30;51.30;;;;;;4999921;28;20203;-85
2022/04/23 08:51:11;;;;;;;2.07;1.90;;;23.30;51.30;;;;;;5016218;28;20415;-85
2022/04/23 08:53:41;;;;;;;2.27;1.50;;;23.30;51.30;;;;;;4998955;28;20416;-85
2022/04/23 08:56:08;;;;;;;1.90;1.57;;;23.30;51.30;;;;;;4998982;28;20902;-86
2022/04/23 08:58:34;;;;;;;2.03;1.73;;;23.30;51.30;;;;;;4999541;28;20455;-86
2022/04/23 09:01:00;;;;;;;1.73;1.47;;;23.30;51.30;;;;;;5016495;28;20435;-86
2022/04/23 09:03:26;;;;;;;1.77;1.47;;;23.30;51.30;;;;;;4999397;28;20203;-86
2022/04/23 09:05:58;;;;;;;2.20;1.90;;;23.30;51.30;;;;;;4999599;28;20177;-85
2022/04/23 09:08:26;;;;;;;2.03;1.83;;;23.30;51.30;;;;;;5016086;28;20199;-85
2022/04/23 09:10:54;;;;;;;1.87;1.40;;;23.30;51.30;;;;;;4999029;28;20424;-84
2022/04/23 09:13:34;;;;;;;1.80;1.60;;;23.30;51.30;;;;;;4999162;28;20424;-85
2022/04/23 09:24:19;;;;;;;1.50;1.30;;;23.30;51.30;;;;;;5013655;28;20444;-86
2022/04/23 09:27:03;;;;;;;1.83;1.60;;;23.30;51.40;;;;;;5025708;28;20475;-86
2022/04/23 09:29:30;;;;;;;2.00;1.77;;;23.30;51.40;;;;;;5019510;28;20484;-86
2022/04/23 09:32:14;;;;;;;1.67;1.37;;;23.30;51.30;;;;;;5035457;28;20413;-86
2022/04/23 09:34:40;;;;;;;2.40;1.87;;;23.30;51.30;;;;;;5034973;28;20396;-86
2022/04/23 09:37:08;;;;;;;1.60;1.50;;;23.30;51.30;;;;;;5035848;28;20411;-86
2022/04/23 09:39:38;;;;;;;1.90;1.50;;;23.30;51.30;;;;;;5019455;28;20426;-86
2022/04/23 09:42:12;;;;;;;2.60;2.00;;;23.30;51.30;;;;;;5018156;28;20490;-86
2022/04/23 09:44:38;;;;;;;1.67;1.57;;;23.30;51.30;;;;;;5002283;28;20445;-86
2022/04/23 09:47:05;;;;;;;1.57;1.47;;;23.30;51.30;;;;;;5001532;28;20463;-85
2022/04/23 09:49:31;;;;;;;1.57;1.37;;;23.30;51.30;;;;;;5018040;28;20416;-86
2022/04/23 09:52:00;;;;;;;1.80;1.60;;;23.30;51.30;;;;;;5022263;28;20508;-85
2022/04/23 09:54:27;;;;;;;2.03;1.83;;;23.30;51.30;;;;;;4998775;28;20448;-84
2022/04/23 09:56:55;;;;;;;1.67;1.30;;;23.30;51.30;;;;;;4999042;28;20752;-84
2022/04/23 09:59:22;;;;;;;1.90;1.50;;;23.30;51.30;;;;;;5018019;28;20426;-85
2022/04/23 10:01:49;;;;;;;1.67;1.57;;;23.30;51.30;;;;;;5018197;28;20454;-86
2022/04/23 10:04:22;;;;;;;1.87;1.70;;;23.30;51.80;;;;;;5035057;28;20422;-85
2022/04/23 10:06:50;;;;;;;1.87;1.50;;;23.30;51.30;;;;;;5017306;28;20482;-85
2022/04/23 10:09:19;;;;;;;1.80;1.33;;;23.30;51.30;;;;;;5033847;28;20415;-85
2022/04/23 10:11:50;;;;;;;2.13;1.80;;;23.40;51.30;;;;;;5017915;28;20452;-86
2022/04/23 10:14:22;;;;;;;1.60;1.50;;;23.40;51.30;;;;;;5035549;28;20424;-85
2022/04/23 10:16:49;;;;;;;1.70;1.40;;;23.40;51.30;;;;;;5002374;28;20887;-84
2022/04/23 10:19:16;;;;;;;2.43;1.57;;;23.40;51.30;;;;;;5001383;28;20438;-84
2022/04/23 10:22:09;;;;;;;1.80;1.50;;;23.40;51.30;;;;;;5034343;28;20433;-85
2022/04/23 10:24:49;;;;;;;1.50;1.40;;;23.40;51.30;;;;;;5015653;28;20438;-85
2022/04/23 10:27:18;;;;;;;2.53;1.70;;;23.40;51.30;;;;;;5016583;28;20463;-86
2022/04/23 10:29:46;;;;;;;1.50;1.30;;;23.40;51.30;;;;;;5034003;28;20422;-85
2022/04/23 10:32:21;;;;;;;2.20;1.67;;;23.40;51.30;;;;;;5033317;28;20471;-85
2022/04/23 10:34:47;;;;;;;1.43;1.33;;;23.40;51.30;;;;;;5034408;28;20418;-85
2022/04/23 10:37:16;;;;;;;1.60;1.50;;;23.40;51.30;;;;;;5031760;28;20445;-85
2022/04/23 10:40:05;;;;;;;3.27;2.97;;;23.40;51.30;;;;;;5016333;28;20438;-85
2022/04/23 10:42:32;;;;;;;2.60;1.90;;;23.40;51.30;;;;;;5017929;28;20416;-86
2022/04/23 10:45:08;;;;;;;3.20;2.50;;;23.40;51.30;;;;;;5018042;28;20419;-86
2022/04/23 10:47:39;;;;;;;4.00;2.43;;;23.40;51.30;;;;;;5017890;28;20461;-85
2022/04/23 10:50:22;;;;;;;4.33;3.60;;;23.40;51.40;;;;;;5035860;28;20414;-85
2022/04/23 10:52:50;;;;;;;6.43;3.83;;;23.40;52.00;;;;;;5017585;28;20477;-85
2022/04/23 10:55:16;;;;;;;6.67;4.43;;;23.40;51.40;;;;;;5034960;28;20412;-85
2022/04/23 10:57:53;;;;;;;4.63;3.93;;;23.40;51.40;;;;;;5017316;28;20410;-85
2022/04/23 11:00:24;;;;;;;5.67;3.90;;;23.40;51.40;;;;;;5017281;28;20434;-85
2022/04/23 11:12:36;;;;;;;8.00;5.47;;;23.40;51.50;;;;;;5034389;28;20415;-85
2022/04/23 11:15:13;;;;;;;5.50;4.57;;;23.40;51.60;;;;;;5034317;28;20453;-85
2022/04/23 11:17:39;;;;;;;6.47;5.30;;;23.40;51.60;;;;;;5017514;28;21022;-85
2022/04/23 11:20:05;;;;;;;6.07;4.63;;;23.40;51.60;;;;;;5034873;28;20480;-85
2022/04/23 11:22:32;;;;;;;6.00;5.00;;;23.40;51.60;;;;;;5017602;28;20255;-85
2022/04/23 11:24:59;;;;;;;5.70;4.30;;;23.50;51.70;;;;;;5017336;28;20454;-85
2022/04/23 11:27:29;;;;;;;5.33;4.03;;;23.50;51.70;;;;;;5017304;28;20447;-84
2022/04/23 11:29:56;;;;;;;6.43;5.30;;;23.50;51.70;;;;;;4998634;28;20420;-84
2022/04/23 11:32:29;;;;;;;6.37;4.43;;;23.50;51.70;;;;;;5028995;28;20419;-84
2022/04/23 11:34:59;;;;;;;7.77;5.20;;;23.50;51.70;;;;;;5034687;28;20755;-84
2022/04/23 11:37:30;;;;;;;7.50;5.33;;;23.50;51.70;;;;;;5034310;28;20785;-84
2022/04/23 11:40:13;;;;;;;5.60;4.10;;;23.50;51.70;;;;;;5034153;28;20541;-84
2022/04/23 11:42:44;;;;;;;7.13;5.23;;;23.50;51.70;;;;;;5034406;28;20414;-84
2022/04/23 11:45:15;;;;;;;9.83;4.87;;;23.50;51.70;;;;;;5024880;28;20431;-83
2022/04/23 11:47:41;;;;;;;4.80;4.20;;;23.50;51.70;;;;;;5035008;28;20434;-85
2022/04/23 11:50:11;;;;;;;5.13;4.63;;;23.50;51.70;;;;;;5033293;28;20518;-86
2022/04/23 11:52:38;;;;;;;4.30;3.90;;;23.50;51.60;;;;;;5017408;28;20447;-85
2022/04/23 11:55:04;;;;;;;6.33;4.60;;;23.50;51.60;;;;;;5034446;28;20415;-85
2022/04/23 11:57:30;;;;;;;6.40;4.03;;;23.60;51.70;;;;;;5017425;28;20431;-85
2022/04/23 12:00:08;;;;;;;6.17;5.37;;;23.60;51.60;;;;;;5016168;28;20872;-84
2022/04/23 12:02:36;;;;;;;5.23;4.60;;;23.60;51.60;;;;;;5001848;28;20196;-84
2022/04/23 12:05:03;;;;;;;8.47;4.70;;;23.60;51.60;;;;;;5014434;28;20483;-87
2022/04/23 12:07:33;;;;;;;7.43;4.90;;;23.60;51.50;;;;;;4996371;28;20455;-85
2022/04/23 12:10:00;;;;;;;8.10;4.53;;;23.60;51.50;;;;;;4997088;28;20408;-85
2022/04/23 12:12:29;;;;;;;6.83;4.50;;;23.60;51.50;;;;;;5014135;28;20405;-84
2022/04/23 12:14:57;;;;;;;7.43;4.90;;;23.60;51.50;;;;;;5013574;28;20431;-86
2022/04/23 12:17:26;;;;;;;6.47;4.47;;;23.60;51.50;;;;;;4996065;28;20420;-85
2022/04/23 12:19:56;;;;;;;8.37;4.70;;;23.60;51.40;;;;;;5014383;28;20416;-85
2022/04/23 12:22:26;;;;;;;5.00;4.27;;;23.60;51.40;;;;;;4997248;28;20408;-85
2022/04/23 12:25:07;;;;;;;6.03;4.50;;;23.60;51.40;;;;;;4997117;28;20423;-84
2022/04/23 12:27:56;;;;;;;6.37;4.67;;;23.60;51.50;;;;;;5013669;28;20450;-85
2022/04/23 12:41:56;;;;;;;5.80;4.73;;;23.50;51.40;;;;;;5034043;28;20390;-85
2022/04/23 12:44:28;;;;;;;5.00;4.50;;;23.50;51.40;;;;;;5048730;28;20434;-83
2022/04/23 12:47:02;;;;;;;6.50;4.73;;;23.50;51.40;;;;;;5016995;28;20451;-83
2022/04/23 12:50:07;;;;;;;5.60;5.10;;;23.50;51.40;;;;;;5020365;28;20438;-84
2022/04/23 12:52:47;;;;;;;8.00;5.13;;;23.50;51.40;;;;;;4959980;29;20824;-84
2022/04/23 12:56:01;;;;;;;6.80;5.53;;;23.50;51.40;;;;;;4970228;29;20519;-84
2022/04/23 12:58:08;;;;;;;8.03;5.77;;;23.50;51.40;;;;;;4948469;29;20414;-84
2022/04/23 13:00:43;;;;;;;5.77;4.93;;;23.50;51.40;;;;;;4966704;29;20844;-85
2022/04/23 13:05:59;;;;;;;7.80;5.70;;;23.50;51.40;;;;;;4972810;29;20412;-83
2022/04/23 13:11:26;;;;;;;10.20;6.77;;;23.50;51.50;;;;;;4974590;29;20413;-85
2022/04/23 13:13:56;;;;;;;11.40;6.37;;;23.50;51.50;;;;;;4962411;29;20394;-85
2022/04/23 13:16:24;;;;;;;7.80;5.60;;;23.50;51.50;;;;;;4958768;29;20453;-85
2022/04/23 13:18:54;;;;;;;8.30;6.00;;;23.50;51.50;;;;;;4958773;29;20502;-87
2022/04/23 13:21:20;;;;;;;7.47;6.60;;;23.50;51.50;;;;;;4955738;29;20422;-87
2022/04/23 13:23:45;;;;;;;7.73;6.60;;;23.60;51.60;;;;;;4946321;29;20485;-86
2022/04/23 13:26:13;;;;;;;9.63;6.50;;;23.60;51.60;;;;;;4959980;29;20458;-86
2022/04/23 13:28:39;;;;;;;8.90;6.30;;;23.50;51.50;;;;;;4980016;28;20784;-86
2022/04/23 13:31:06;;;;;;;10.23;7.17;;;23.60;51.60;;;;;;5016130;28;20412;-86
2022/04/23 13:33:32;;;;;;;9.90;6.47;;;23.60;51.60;;;;;;5018285;28;20394;-86
2022/04/23 13:35:57;;;;;;;8.13;6.80;;;23.60;51.60;;;;;;5035738;28;20407;-86
2022/04/23 13:38:23;;;;;;;8.50;6.47;;;23.60;51.60;;;;;;5018328;28;20207;-86
2022/04/23 13:40:49;;;;;;;12.93;7.30;;;23.60;51.60;;;;;;5035378;28;20184;-86
2022/04/23 13:43:17;;;;;;;16.97;10.03;;;23.60;51.60;;;;;;5013733;28;20459;-86